CYSR weather

CLOSED Nanisivik Airport
Nanisivik, Nunavut, Canada

Public forecast

Using degrees Celsius for public forecast. Weather courtesy of forecast.io.

METAR (pilot weather report)

Report is more than 6 hours old.

Retrieved 2011/01/12 22:00 UTC (8 years ago):

CYSR 122200Z 22003KT 8SM -SN OVC014 M21/M25 A3009 RMK ST8 -20.4/-21.4/0.6/17/SNW CVR MUCH LOOSE/LAST OB SLP279

TAF (pilot weather forecast)

Forecast is more than 12 hours old.

Retrieved 2011/01/12 19:00 UTC (8 years ago):

TAF CYSR 121838Z 1219/1222 VRB03KT P6SM -SN OVC015 TEMPO 1219/1222 5SM -SN BKN008 OVC015 RMK FCST PROGRAM TERMINATED AT 122200Z